Time;durP1;ratioP1;P1;durP2;ratioP2;P2;SDS_P1;SDS_P2;PMS_P1;PMS_P2;Temp;Humidity;BMP_temperature;BMP_pressure;BME280_temperature;BME280_humidity;BME280_pressure;Samples;Min_cycle;Max_cycle;Signal;HPM_P1;HPM_P2
2023/06/16 00:02:18;;;;;;;1.80;1.80;;;23.00;65.60;;;;;;5090925;27;43485;-67
2023/06/16 00:04:49;;;;;;;1.90;1.90;;;23.00;65.80;;;;;;5087831;27;43532;-67
2023/06/16 00:07:19;;;;;;;1.60;1.60;;;22.90;65.90;;;;;;5087480;27;43849;-67
2023/06/16 00:09:47;;;;;;;2.10;2.10;;;22.90;66.20;;;;;;5087327;28;43429;-67
2023/06/16 00:12:15;;;;;;;1.90;1.80;;;22.90;66.10;;;;;;5087460;27;43350;-67
2023/06/16 00:14:43;;;;;;;1.80;1.80;;;22.90;66.10;;;;;;5087343;28;43362;-67
2023/06/16 00:17:12;;;;;;;1.57;1.57;;;22.90;66.30;;;;;;5087537;28;43933;-67
2023/06/16 00:19:40;;;;;;;1.80;1.80;;;22.90;66.40;;;;;;5087660;27;43412;-67
2023/06/16 00:22:10;;;;;;;1.97;1.97;;;22.80;66.40;;;;;;5087416;27;44068;-67
2023/06/16 00:24:39;;;;;;;1.70;1.70;;;22.90;66.10;;;;;;5081618;28;43416;-67
2023/06/16 00:27:07;;;;;;;2.00;2.00;;;23.00;65.70;;;;;;5083822;28;43781;-67
2023/06/16 00:29:38;;;;;;;1.80;1.80;;;23.10;65.30;;;;;;5082786;28;43409;-67
2023/06/16 00:32:06;;;;;;;1.80;1.80;;;23.20;64.90;;;;;;5081325;28;43410;-67
2023/06/16 00:34:35;;;;;;;1.70;1.70;;;23.20;64.50;;;;;;5087714;27;43490;-66
2023/06/16 00:37:04;;;;;;;1.77;1.77;;;23.20;64.50;;;;;;5087338;28;43744;-67
2023/06/16 00:39:33;;;;;;;1.90;1.90;;;23.10;64.70;;;;;;5086433;27;43903;-67
2023/06/16 00:42:02;;;;;;;1.80;1.80;;;23.10;65.40;;;;;;5085393;28;43590;-67
2023/06/16 00:44:30;;;;;;;1.80;1.80;;;23.10;65.30;;;;;;5081551;28;43514;-67
2023/06/16 00:47:00;;;;;;;2.00;2.00;;;23.10;65.40;;;;;;5086798;27;43692;-67
2023/06/16 00:49:28;;;;;;;1.97;1.97;;;23.00;65.60;;;;;;5086951;27;43418;-67
2023/06/16 00:51:56;;;;;;;1.90;1.90;;;23.00;65.90;;;;;;5086788;27;43359;-67
2023/06/16 00:54:27;;;;;;;1.77;1.77;;;22.90;66.10;;;;;;5080510;27;43533;-67
2023/06/16 00:56:56;;;;;;;1.63;1.63;;;22.90;66.00;;;;;;5081776;27;45728;-71
2023/06/16 00:59:26;;;;;;;1.70;1.70;;;22.90;65.90;;;;;;5085345;28;43758;-67
2023/06/16 01:01:55;;;;;;;1.80;1.80;;;22.90;66.10;;;;;;5085140;28;43522;-67
2023/06/16 01:04:23;;;;;;;1.90;1.90;;;22.80;66.30;;;;;;5085405;28;43395;-67
2023/06/16 01:06:57;;;;;;;1.90;1.90;;;22.80;66.20;;;;;;5085594;28;44917;-67
2023/06/16 01:09:31;;;;;;;2.00;2.00;;;22.90;66.00;;;;;;5086891;27;43400;-67
2023/06/16 01:12:07;;;;;;;1.80;1.80;;;23.00;65.60;;;;;;5086907;27;43390;-67
2023/06/16 01:14:43;;;;;;;1.83;1.80;;;23.10;65.10;;;;;;5087188;27;43332;-67
2023/06/16 01:17:12;;;;;;;1.97;1.97;;;23.10;64.60;;;;;;5086873;27;44048;-67
2023/06/16 01:19:45;;;;;;;2.00;2.00;;;23.10;64.80;;;;;;5085322;28;45060;-67
2023/06/16 01:22:24;;;;;;;2.00;2.00;;;23.10;64.80;;;;;;5086941;28;44025;-67
2023/06/16 01:24:54;;;;;;;1.77;1.77;;;23.00;65.60;;;;;;5085278;28;43471;-67
2023/06/16 01:27:22;;;;;;;1.90;1.90;;;23.00;65.60;;;;;;5086304;27;43619;-67
2023/06/16 01:29:51;;;;;;;1.80;1.80;;;23.00;65.60;;;;;;5084965;27;44767;-67
2023/06/16 01:32:20;;;;;;;1.70;1.70;;;22.90;65.50;;;;;;5087361;27;43415;-67
2023/06/16 01:34:48;;;;;;;1.70;1.70;;;22.90;65.80;;;;;;5088749;27;43464;-67
2023/06/16 01:37:16;;;;;;;1.90;1.90;;;22.90;66.10;;;;;;5088415;28;45288;-67
2023/06/16 01:39:44;;;;;;;1.87;1.87;;;22.90;65.90;;;;;;5089625;28;43363;-68
2023/06/16 01:42:14;;;;;;;2.20;2.20;;;23.00;65.60;;;;;;5088916;27;43433;-67
2023/06/16 01:44:42;;;;;;;1.90;1.90;;;23.10;65.20;;;;;;5086951;28;43388;-67
2023/06/16 01:47:11;;;;;;;1.80;1.80;;;23.20;64.80;;;;;;5084247;27;44690;-68
2023/06/16 01:49:39;;;;;;;1.73;1.73;;;23.20;64.50;;;;;;5089032;27;43445;-66
2023/06/16 01:52:08;;;;;;;1.87;1.87;;;23.20;64.60;;;;;;5090137;27;43343;-66
2023/06/16 01:54:36;;;;;;;1.90;1.90;;;23.10;64.80;;;;;;5088398;28;43428;-66
2023/06/16 01:57:07;;;;;;;2.00;2.00;;;23.00;65.30;;;;;;5088118;28;44029;-66
2023/06/16 01:59:36;;;;;;;1.73;1.73;;;23.00;65.40;;;;;;5085494;28;44545;-66
2023/06/16 02:02:06;;;;;;;1.90;1.90;;;23.00;65.30;;;;;;5089638;28;43433;-66
2023/06/16 02:04:34;;;;;;;1.80;1.80;;;22.90;65.60;;;;;;5078500;28;43407;-66
2023/06/16 02:07:04;;;;;;;1.90;1.90;;;22.90;66.00;;;;;;5088925;27;43748;-66
2023/06/16 02:09:32;;;;;;;1.93;1.93;;;22.90;66.00;;;;;;5089094;27;43384;-66
2023/06/16 02:12:00;;;;;;;1.70;1.70;;;22.90;65.70;;;;;;5089355;27;43416;-66
2023/06/16 02:14:31;;;;;;;1.60;1.60;;;22.90;66.00;;;;;;5088360;27;43620;-68
2023/06/16 02:17:02;;;;;;;1.97;1.97;;;22.80;66.20;;;;;;5087530;28;45712;-68
2023/06/16 02:19:31;;;;;;;1.63;1.63;;;22.80;66.30;;;;;;5089266;27;43437;-67
2023/06/16 02:21:59;;;;;;;1.93;1.93;;;22.90;66.10;;;;;;5089431;27;43474;-68
2023/06/16 02:24:27;;;;;;;1.80;1.80;;;23.00;65.60;;;;;;5084535;28;43527;-67
2023/06/16 02:26:55;;;;;;;1.80;1.80;;;23.10;65.40;;;;;;5086950;28;43860;-68
2023/06/16 02:29:23;;;;;;;1.90;1.90;;;23.10;64.80;;;;;;5087627;28;44873;-67
2023/06/16 02:31:51;;;;;;;1.77;1.77;;;23.20;64.70;;;;;;5087751;28;43841;-67
2023/06/16 02:34:21;;;;;;;1.80;1.80;;;23.10;64.60;;;;;;5087961;28;43461;-68
2023/06/16 02:36:50;;;;;;;1.90;1.90;;;23.10;65.10;;;;;;5088746;27;43828;-67
2023/06/16 02:39:18;;;;;;;1.70;1.70;;;23.00;65.50;;;;;;5086522;28;44679;-67
2023/06/16 02:41:48;;;;;;;2.23;2.20;;;23.00;65.40;;;;;;5087666;28;43471;-68
2023/06/16 02:44:16;;;;;;;2.00;2.00;;;23.00;65.30;;;;;;5081220;27;43503;-68
2023/06/16 02:46:44;;;;;;;1.60;1.60;;;22.90;65.60;;;;;;5088711;27;43913;-68
2023/06/16 02:49:12;;;;;;;1.60;1.60;;;22.90;66.10;;;;;;5087493;28;44970;-68
2023/06/16 02:51:42;;;;;;;2.13;2.03;;;22.90;66.00;;;;;;5082876;28;44047;-67
2023/06/16 02:54:11;;;;;;;1.97;1.97;;;22.90;65.90;;;;;;5087629;28;43569;-67
2023/06/16 02:56:39;;;;;;;1.70;1.70;;;22.80;65.90;;;;;;5088782;28;43858;-68
2023/06/16 02:59:07;;;;;;;1.90;1.90;;;22.80;66.30;;;;;;5086854;28;43443;-68
2023/06/16 03:01:36;;;;;;;2.00;2.00;;;22.80;66.20;;;;;;5088968;27;43450;-68
2023/06/16 03:04:25;;;;;;;1.90;1.90;;;22.90;65.80;;;;;;5087074;27;43565;-68
2023/06/16 03:07:02;;;;;;;1.80;1.80;;;23.00;65.40;;;;;;5086760;28;43883;-67
2023/06/16 03:09:35;;;;;;;1.73;1.73;;;23.10;65.10;;;;;;5086520;27;43421;-67
2023/06/16 03:12:07;;;;;;;1.90;1.90;;;23.10;64.60;;;;;;5087449;27;43469;-67
2023/06/16 03:14:40;;;;;;;2.00;2.00;;;23.10;64.60;;;;;;5080023;28;44005;-67
2023/06/16 03:17:17;;;;;;;2.07;2.07;;;23.10;64.60;;;;;;5086777;28;45968;-67
2023/06/16 03:19:45;;;;;;;2.00;2.00;;;23.00;65.40;;;;;;5088316;28;43374;-67
2023/06/16 03:22:16;;;;;;;1.80;1.80;;;23.00;65.50;;;;;;5086663;28;43420;-68
2023/06/16 03:24:46;;;;;;;2.03;1.77;;;22.90;65.10;;;;;;5082506;28;43515;-68
2023/06/16 03:27:16;;;;;;;1.80;1.80;;;22.90;65.40;;;;;;5085678;28;45687;-67
2023/06/16 03:30:01;;;;;;;1.70;1.70;;;22.90;66.10;;;;;;5084244;28;43489;-68
2023/06/16 03:32:45;;;;;;;1.90;1.90;;;22.90;66.00;;;;;;5083687;28;44000;-68
2023/06/16 03:35:13;;;;;;;1.70;1.70;;;22.90;65.80;;;;;;5085081;28;43457;-68
2023/06/16 03:37:43;;;;;;;1.77;1.77;;;22.80;65.80;;;;;;5079219;28;43870;-67
2023/06/16 03:40:11;;;;;;;1.80;1.80;;;22.80;66.40;;;;;;5086441;28;44827;-67
2023/06/16 03:42:40;;;;;;;2.00;1.90;;;22.80;66.30;;;;;;5085873;27;43397;-67
2023/06/16 03:45:10;;;;;;;1.90;1.90;;;22.80;65.80;;;;;;5087027;28;44060;-68
2023/06/16 03:47:38;;;;;;;2.13;2.13;;;23.00;65.60;;;;;;5084900;27;43835;-68
2023/06/16 03:50:07;;;;;;;2.17;2.03;;;23.10;65.30;;;;;;5078540;28;43437;-67
2023/06/16 03:52:38;;;;;;;1.87;1.87;;;23.10;64.80;;;;;;5081579;27;43394;-68
2023/06/16 03:55:10;;;;;;;1.70;1.70;;;23.10;64.70;;;;;;5085670;27;43999;-67
2023/06/16 03:57:38;;;;;;;1.90;1.90;;;23.00;64.50;;;;;;5069193;28;44038;-68
2023/06/16 04:00:09;;;;;;;2.07;2.07;;;23.00;65.30;;;;;;5077357;28;44871;-68
2023/06/16 04:02:50;;;;;;;1.80;1.80;;;23.00;65.50;;;;;;5086314;28;43344;-68
2023/06/16 04:05:25;;;;;;;1.87;1.87;;;22.90;65.20;;;;;;5077342;28;43638;-68
2023/06/16 04:07:56;;;;;;;1.80;1.80;;;22.90;65.30;;;;;;5085979;28;46868;-67
2023/06/16 04:10:26;;;;;;;1.80;1.80;;;22.80;65.50;;;;;;5084090;28;43572;-67
2023/06/16 04:12:55;;;;;;;1.90;1.90;;;22.80;66.00;;;;;;5078712;28;43448;-67
2023/06/16 04:15:24;;;;;;;2.10;2.00;;;22.80;65.70;;;;;;5086760;28;43716;-68
2023/06/16 04:17:53;;;;;;;1.70;1.70;;;22.80;65.60;;;;;;5083886;27;44033;-68
2023/06/16 04:20:22;;;;;;;1.70;1.70;;;22.80;65.80;;;;;;5083922;28;43813;-68
2023/06/16 04:22:50;;;;;;;1.87;1.87;;;22.80;66.30;;;;;;5087441;27;43338;-67
2023/06/16 04:25:18;;;;;;;1.90;1.90;;;22.70;66.10;;;;;;5082990;28;43572;-67
2023/06/16 04:27:49;;;;;;;1.80;1.80;;;22.80;65.80;;;;;;5085637;28;45833;-68
2023/06/16 04:30:23;;;;;;;2.07;1.90;;;22.90;65.30;;;;;;5083978;28;44913;-68
2023/06/16 04:32:54;;;;;;;1.93;1.93;;;23.00;65.00;;;;;;5084868;28;43545;-67
2023/06/16 04:35:24;;;;;;;2.10;2.00;;;23.00;64.80;;;;;;5086388;28;43415;-68
2023/06/16 04:37:52;;;;;;;1.90;1.90;;;22.90;65.30;;;;;;5085107;28;45997;-67
2023/06/16 04:40:22;;;;;;;2.10;2.10;;;22.90;65.40;;;;;;5079530;28;44815;-68
2023/06/16 04:42:52;;;;;;;1.90;1.90;;;22.90;65.10;;;;;;5078593;28;43369;-68
2023/06/16 04:45:20;;;;;;;2.10;2.00;;;22.90;65.40;;;;;;5085031;28;43551;-67
2023/06/16 04:47:50;;;;;;;2.00;2.00;;;22.90;65.40;;;;;;5084349;28;45816;-68
2023/06/16 04:50:18;;;;;;;2.10;2.10;;;22.80;65.80;;;;;;5082068;27;44592;-68
2023/06/16 04:52:48;;;;;;;1.90;1.90;;;22.90;65.50;;;;;;5084227;28;43524;-68
2023/06/16 04:55:17;;;;;;;2.23;2.03;;;22.90;65.80;;;;;;5084519;27;43385;-68
2023/06/16 04:57:45;;;;;;;3.07;2.60;;;22.80;65.80;;;;;;5086240;27;45829;-67
2023/06/16 05:00:15;;;;;;;2.90;2.70;;;22.80;65.20;;;;;;5083933;27;45047;-68
2023/06/16 05:02:44;;;;;;;3.17;2.60;;;22.70;63.60;;;;;;5085631;28;43874;-68
2023/06/16 05:05:12;;;;;;;3.27;2.90;;;22.80;63.70;;;;;;5077001;28;43552;-67
2023/06/16 05:07:40;;;;;;;2.90;2.70;;;22.90;63.80;;;;;;5082322;28;43728;-67
2023/06/16 05:10:09;;;;;;;2.90;2.50;;;23.00;63.70;;;;;;5083165;28;44798;-67
2023/06/16 05:12:37;;;;;;;3.47;3.03;;;23.10;62.90;;;;;;5080637;28;43526;-68
2023/06/16 05:15:07;;;;;;;3.90;3.60;;;23.10;63.00;;;;;;5086616;28;43501;-67
2023/06/16 05:17:37;;;;;;;3.83;3.50;;;23.10;63.40;;;;;;5088231;27;43930;-68
2023/06/16 05:20:06;;;;;;;4.17;3.77;;;23.00;64.00;;;;;;5088584;28;44681;-68
2023/06/16 05:22:37;;;;;;;4.20;3.90;;;22.90;64.10;;;;;;5089167;27;43408;-67
2023/06/16 05:25:07;;;;;;;3.80;3.60;;;22.90;64.10;;;;;;5087918;28;43565;-67
2023/06/16 05:27:37;;;;;;;3.90;3.70;;;22.90;64.30;;;;;;5088632;27;45723;-67
2023/06/16 05:30:06;;;;;;;3.63;3.47;;;22.90;64.40;;;;;;5087411;28;46256;-71
2023/06/16 05:32:36;;;;;;;4.33;4.20;;;22.80;64.90;;;;;;5089306;27;43473;-68
2023/06/16 05:35:04;;;;;;;4.60;4.40;;;22.80;64.80;;;;;;5091237;27;43505;-67
2023/06/16 05:37:32;;;;;;;4.40;4.10;;;22.80;65.00;;;;;;5088700;28;45765;-67
2023/06/16 05:40:03;;;;;;;4.20;4.10;;;22.80;64.90;;;;;;5088563;27;44738;-67
2023/06/16 05:42:33;;;;;;;4.40;4.20;;;22.80;65.30;;;;;;5084402;28;43354;-67
2023/06/16 05:45:02;;;;;;;4.30;4.10;;;22.70;65.20;;;;;;5088827;27;43559;-67
2023/06/16 05:47:30;;;;;;;4.00;3.87;;;22.70;65.00;;;;;;5088127;28;45115;-67
2023/06/16 05:50:00;;;;;;;4.27;4.07;;;22.70;65.10;;;;;;5090139;27;43382;-67
2023/06/16 05:52:30;;;;;;;4.70;4.40;;;22.70;65.10;;;;;;5081830;28;44075;-67
2023/06/16 05:54:58;;;;;;;4.20;4.10;;;22.70;65.40;;;;;;5084280;28;43573;-67
2023/06/16 05:57:50;;;;;;;4.40;4.20;;;22.70;65.40;;;;;;5084947;28;43607;-67
2023/06/16 06:00:18;;;;;;;4.23;4.03;;;22.80;64.90;;;;;;5086706;28;43740;-67
2023/06/16 06:02:54;;;;;;;4.13;4.03;;;23.00;64.70;;;;;;5086508;28;43984;-67
2023/06/16 06:05:35;;;;;;;4.03;3.83;;;23.00;64.10;;;;;;5088175;28;44030;-67
2023/06/16 06:08:03;;;;;;;4.23;4.03;;;23.10;63.90;;;;;;5084888;28;45731;-67
2023/06/16 06:10:33;;;;;;;4.33;4.13;;;23.00;63.70;;;;;;5087904;28;45136;-67
2023/06/16 06:13:03;;;;;;;4.30;4.00;;;23.00;64.00;;;;;;5089702;27;43377;-67
2023/06/16 06:15:32;;;;;;;3.90;3.80;;;22.90;64.50;;;;;;5088446;28;44179;-67
2023/06/16 06:18:07;;;;;;;4.30;4.20;;;22.90;64.50;;;;;;5087507;27;44751;-67
2023/06/16 06:20:40;;;;;;;4.00;3.90;;;22.90;64.60;;;;;;5086680;28;44385;-67
2023/06/16 06:23:09;;;;;;;4.10;3.90;;;22.80;64.80;;;;;;5086750;28;43921;-67
2023/06/16 06:25:40;;;;;;;3.60;3.50;;;22.80;65.10;;;;;;5088690;28;43407;-67
2023/06/16 06:28:09;;;;;;;3.70;3.60;;;22.70;65.10;;;;;;5082155;28;43887;-67
2023/06/16 06:30:38;;;;;;;3.87;3.77;;;22.80;65.10;;;;;;5089995;27;43422;-67
2023/06/16 06:33:06;;;;;;;3.70;3.50;;;22.70;65.10;;;;;;5086626;28;43362;-67
2023/06/16 06:35:35;;;;;;;4.33;4.03;;;22.70;65.20;;;;;;5086725;28;43560;-67
2023/06/16 06:38:04;;;;;;;3.80;3.70;;;22.70;65.60;;;;;;5093790;27;45729;-67
2023/06/16 06:40:35;;;;;;;4.10;3.80;;;22.70;65.60;;;;;;5087614;28;43991;-67
2023/06/16 06:43:03;;;;;;;4.17;3.97;;;22.70;65.10;;;;;;5081122;27;43503;-67
2023/06/16 06:45:57;;;;;;;3.80;3.70;;;22.90;64.80;;;;;;5088139;28;43356;-67
2023/06/16 06:48:26;;;;;;;4.00;3.80;;;23.00;64.50;;;;;;5087206;28;45648;-68
2023/06/16 06:50:58;;;;;;;4.00;3.90;;;23.10;64.20;;;;;;5083715;28;43501;-68
2023/06/16 06:53:27;;;;;;;3.50;3.40;;;23.00;64.10;;;;;;5087357;27;43888;-67
2023/06/16 06:55:55;;;;;;;4.10;3.90;;;23.00;64.00;;;;;;5088193;27;43397;-67
2023/06/16 06:58:23;;;;;;;4.10;3.97;;;22.90;65.40;;;;;;5088698;28;43750;-67
2023/06/16 07:00:51;;;;;;;3.50;3.40;;;22.90;64.90;;;;;;5088977;28;43394;-67
2023/06/16 07:03:19;;;;;;;3.70;3.60;;;22.80;64.80;;;;;;5088837;27;43430;-69
2023/06/16 07:05:48;;;;;;;4.50;4.10;;;22.80;65.00;;;;;;5088379;27;43549;-67
2023/06/16 07:08:16;;;;;;;3.80;3.70;;;22.80;65.10;;;;;;5086523;27;43607;-67
2023/06/16 07:10:45;;;;;;;3.83;3.73;;;22.70;65.40;;;;;;5088740;27;43447;-68
2023/06/16 07:13:13;;;;;;;3.93;3.80;;;22.70;65.40;;;;;;5087561;28;43470;-68
2023/06/16 07:15:41;;;;;;;4.50;3.67;;;22.70;65.50;;;;;;5088085;27;43445;-67
2023/06/16 07:18:09;;;;;;;3.80;3.70;;;22.70;65.50;;;;;;5088315;27;43757;-67
2023/06/16 07:20:37;;;;;;;4.67;4.30;;;22.60;66.40;;;;;;5088177;27;44373;-67
2023/06/16 07:23:05;;;;;;;7.30;4.20;;;22.60;65.30;;;;;;5088507;28;43602;-67
2023/06/16 07:25:36;;;;;;;4.37;4.17;;;22.70;65.10;;;;;;5088708;27;43537;-67
2023/06/16 07:28:06;;;;;;;5.07;4.10;;;22.80;64.80;;;;;;5082797;28;43960;-67
2023/06/16 07:30:34;;;;;;;4.00;3.70;;;23.00;64.60;;;;;;5079160;28;45017;-67
2023/06/16 07:33:02;;;;;;;7.23;3.67;;;23.00;65.00;;;;;;5088342;27;43366;-67
2023/06/16 07:35:30;;;;;;;4.00;3.70;;;23.00;64.30;;;;;;5088590;27;43432;-67
2023/06/16 07:37:58;;;;;;;3.90;3.70;;;23.00;64.30;;;;;;5088073;27;43964;-67
2023/06/16 07:40:26;;;;;;;3.93;3.67;;;22.90;64.80;;;;;;5085162;28;43503;-67
2023/06/16 07:42:54;;;;;;;4.20;3.90;;;22.90;65.20;;;;;;5081855;28;44021;-67
2023/06/16 07:45:23;;;;;;;3.63;3.53;;;22.80;65.10;;;;;;5088220;27;43470;-68
2023/06/16 07:47:51;;;;;;;3.80;3.70;;;22.80;65.30;;;;;;5088193;28;43726;-67
2023/06/16 07:50:19;;;;;;;3.80;3.60;;;22.80;65.30;;;;;;5087756;27;43417;-67
2023/06/16 07:52:48;;;;;;;3.70;3.53;;;22.70;65.80;;;;;;5088345;27;43420;-67
2023/06/16 07:55:16;;;;;;;3.87;3.67;;;22.70;65.80;;;;;;5088635;27;43486;-67
2023/06/16 07:57:44;;;;;;;3.80;3.60;;;22.70;65.80;;;;;;5084273;27;43825;-68
2023/06/16 08:00:15;;;;;;;4.47;4.03;;;22.70;65.80;;;;;;5086390;27;43565;-67
2023/06/16 08:02:44;;;;;;;4.33;3.87;;;22.60;66.00;;;;;;5088320;27;43346;-67
2023/06/16 08:05:16;;;;;;;3.63;3.53;;;22.60;66.10;;;;;;5088352;27;43464;-67
2023/06/16 08:07:44;;;;;;;3.73;3.60;;;22.60;66.10;;;;;;5086526;27;43611;-68
2023/06/16 08:10:12;;;;;;;4.07;3.97;;;22.60;66.00;;;;;;5084755;27;43508;-67
2023/06/16 08:12:43;;;;;;;3.97;3.67;;;22.60;65.60;;;;;;5083279;28;43440;-67
2023/06/16 08:15:12;;;;;;;4.30;3.90;;;22.60;66.10;;;;;;5088341;27;43809;-67
2023/06/16 08:17:40;;;;;;;3.93;3.73;;;22.60;66.10;;;;;;5087909;27;43884;-67
2023/06/16 08:20:11;;;;;;;4.27;3.87;;;22.70;65.90;;;;;;5084977;27;43588;-67
2023/06/16 08:22:39;;;;;;;3.67;3.40;;;22.80;65.40;;;;;;5086773;27;43533;-67
2023/06/16 08:25:08;;;;;;;3.93;3.73;;;23.00;65.00;;;;;;5088054;27;43343;-67
2023/06/16 08:27:36;;;;;;;3.40;3.30;;;23.00;64.60;;;;;;5087174;27;43956;-67
2023/06/16 08:30:05;;;;;;;4.53;4.10;;;23.10;64.60;;;;;;5085400;27;43444;-67
2023/06/16 08:32:33;;;;;;;3.20;3.10;;;23.10;65.00;;;;;;5087787;27;43377;-67
2023/06/16 08:35:02;;;;;;;4.17;3.97;;;23.00;65.00;;;;;;5087865;27;43422;-67
2023/06/16 08:37:31;;;;;;;3.70;3.47;;;22.90;65.40;;;;;;5087396;27;43977;-67
2023/06/16 08:40:00;;;;;;;4.00;3.80;;;22.90;65.50;;;;;;5087500;27;43314;-67
2023/06/16 08:42:27;;;;;;;4.03;3.73;;;22.80;65.50;;;;;;5087732;27;43355;-67
2023/06/16 08:44:55;;;;;;;4.13;3.77;;;22.80;65.50;;;;;;5088369;28;43429;-67
2023/06/16 08:47:24;;;;;;;3.73;3.63;;;22.80;65.90;;;;;;5089226;28;45858;-67
2023/06/16 08:49:54;;;;;;;3.67;3.40;;;22.70;66.10;;;;;;5090480;27;43351;-67
2023/06/16 08:52:23;;;;;;;3.40;3.30;;;22.70;66.10;;;;;;5091178;27;43397;-66
2023/06/16 08:55:13;;;;;;;3.97;3.63;;;22.70;66.00;;;;;;5090241;27;43443;-66
2023/06/16 08:57:46;;;;;;;3.10;3.00;;;22.60;65.80;;;;;;5091141;27;43840;-69
2023/06/16 09:00:16;;;;;;;3.60;3.40;;;22.60;66.40;;;;;;5090779;27;43383;-67
2023/06/16 09:02:48;;;;;;;3.60;3.30;;;22.60;66.40;;;;;;5089278;27;43809;-67
2023/06/16 09:05:18;;;;;;;3.30;3.20;;;22.60;66.40;;;;;;5089380;27;44120;-67
2023/06/16 09:07:49;;;;;;;3.60;3.43;;;22.60;66.10;;;;;;5090281;27;43828;-67
2023/06/16 09:10:19;;;;;;;3.90;3.60;;;22.60;66.50;;;;;;5090229;28;43427;-66
2023/06/16 09:12:52;;;;;;;3.77;3.57;;;22.60;66.50;;;;;;5090441;27;43396;-66
2023/06/16 09:15:20;;;;;;;7.00;3.17;;;22.70;66.00;;;;;;5090971;27;43378;-66
2023/06/16 09:17:48;;;;;;;3.63;3.33;;;22.80;65.60;;;;;;5091292;27;43997;-66
2023/06/16 09:20:17;;;;;;;3.60;3.40;;;22.90;65.20;;;;;;5092110;27;43470;-66
2023/06/16 09:22:49;;;;;;;4.70;3.40;;;23.00;65.00;;;;;;5086918;27;43386;-67
2023/06/16 09:25:19;;;;;;;3.40;3.20;;;23.00;65.20;;;;;;5082788;28;43457;-66
2023/06/16 09:27:47;;;;;;;3.03;2.93;;;23.00;65.30;;;;;;5082716;28;43766;-68
2023/06/16 09:30:18;;;;;;;3.80;3.57;;;22.90;65.20;;;;;;5081931;28;43588;-68
2023/06/16 09:32:47;;;;;;;3.57;3.37;;;22.90;65.80;;;;;;5082729;27;43481;-68
2023/06/16 09:35:20;;;;;;;3.53;3.43;;;22.80;65.70;;;;;;5081007;28;43541;-68
2023/06/16 09:37:48;;;;;;;2.97;2.87;;;22.80;65.80;;;;;;5081867;27;43581;-67
2023/06/16 09:40:16;;;;;;;3.30;3.20;;;22.80;65.70;;;;;;5089167;27;43473;-68
2023/06/16 09:42:48;;;;;;;3.30;3.20;;;22.70;66.20;;;;;;5082678;28;43410;-68
2023/06/16 09:45:16;;;;;;;3.30;3.10;;;22.70;66.30;;;;;;5084242;28;44004;-68
2023/06/16 09:47:45;;;;;;;3.57;3.40;;;22.70;66.30;;;;;;5089394;27;44653;-68
2023/06/16 09:50:14;;;;;;;3.40;3.20;;;22.70;66.10;;;;;;5089335;27;44144;-68
2023/06/16 09:52:42;;;;;;;3.20;3.10;;;22.60;66.10;;;;;;5083180;27;43437;-67
2023/06/16 09:55:11;;;;;;;3.20;3.00;;;22.60;66.50;;;;;;5088349;27;43957;-67
2023/06/16 09:57:39;;;;;;;2.90;2.80;;;22.70;66.40;;;;;;5083476;28;44027;-67
2023/06/16 10:00:15;;;;;;;3.63;3.50;;;22.80;65.80;;;;;;5089419;28;43424;-68
2023/06/16 10:02:46;;;;;;;3.30;3.10;;;22.90;66.10;;;;;;5088037;27;43382;-68
2023/06/16 10:05:16;;;;;;;3.97;3.63;;;23.00;65.30;;;;;;5083162;27;43447;-68
2023/06/16 10:07:44;;;;;;;4.63;3.00;;;23.00;65.00;;;;;;5088000;28;43592;-69
2023/06/16 10:10:12;;;;;;;3.47;3.37;;;22.90;65.20;;;;;;5089348;28;43520;-68
2023/06/16 10:12:44;;;;;;;3.27;3.07;;;22.80;65.50;;;;;;5088357;28;43429;-67
2023/06/16 10:15:16;;;;;;;3.20;3.00;;;22.80;65.70;;;;;;5096069;27;43378;-67
2023/06/16 10:17:44;;;;;;;3.53;3.23;;;22.80;65.70;;;;;;5092910;27;43575;-67
2023/06/16 10:20:13;;;;;;;3.47;3.30;;;22.70;65.50;;;;;;5092692;27;43486;-67
2023/06/16 10:22:41;;;;;;;3.50;3.30;;;22.70;65.60;;;;;;5089333;27;43488;-67
2023/06/16 10:25:10;;;;;;;3.67;3.47;;;22.70;66.20;;;;;;5083092;27;43382;-68
2023/06/16 10:27:39;;;;;;;3.10;3.00;;;22.60;66.10;;;;;;5089225;27;43591;-67
2023/06/16 10:30:09;;;;;;;3.23;3.13;;;22.70;66.10;;;;;;5089112;27;43857;-67
2023/06/16 10:32:38;;;;;;;3.27;3.07;;;22.60;65.60;;;;;;5086498;28;43367;-68
2023/06/16 10:35:10;;;;;;;3.20;3.10;;;22.60;66.40;;;;;;5091462;27;43569;-66
2023/06/16 10:37:37;;;;;;;3.30;3.20;;;22.60;66.20;;;;;;5089288;28;43785;-67
2023/06/16 10:40:08;;;;;;;3.50;3.30;;;22.70;65.70;;;;;;5089054;27;43534;-66
2023/06/16 10:42:37;;;;;;;3.60;3.30;;;22.80;65.10;;;;;;5084816;27;43417;-67
2023/06/16 10:45:25;;;;;;;3.13;3.03;;;23.00;64.90;;;;;;5087505;28;43439;-67
2023/06/16 10:48:00;;;;;;;3.07;2.97;;;23.00;64.60;;;;;;5090434;27;43917;-67
2023/06/16 10:50:33;;;;;;;3.40;3.30;;;23.00;64.50;;;;;;5087527;27;45865;-67
2023/06/16 10:53:11;;;;;;;3.60;3.40;;;22.90;64.70;;;;;;5088937;28;43372;-67
2023/06/16 10:55:41;;;;;;;3.17;3.03;;;22.90;65.10;;;;;;5085346;28;43405;-66
2023/06/16 10:58:27;;;;;;;3.03;2.93;;;22.80;65.00;;;;;;5087325;28;45653;-66
2023/06/16 11:00:59;;;;;;;3.03;2.93;;;22.80;65.10;;;;;;5082233;28;43482;-68
2023/06/16 11:03:38;;;;;;;3.40;3.30;;;22.80;65.20;;;;;;5088788;27;43387;-68
2023/06/16 11:06:06;;;;;;;3.50;3.30;;;22.70;65.50;;;;;;5088714;27;43436;-68
2023/06/16 11:08:49;;;;;;;3.23;3.03;;;22.70;65.70;;;;;;5087566;27;43610;-68
2023/06/16 11:11:17;;;;;;;3.10;2.90;;;22.60;66.30;;;;;;5088755;27;44115;-68
2023/06/16 11:13:46;;;;;;;3.10;3.00;;;22.70;65.60;;;;;;5088503;28;43430;-68
2023/06/16 11:16:14;;;;;;;3.50;3.40;;;22.60;65.40;;;;;;5089151;27;43332;-68
2023/06/16 11:18:44;;;;;;;3.87;3.20;;;22.60;64.90;;;;;;5088404;28;44071;-68
2023/06/16 11:21:12;;;;;;;3.73;3.53;;;22.60;65.10;;;;;;5088466;27;44053;-68
2023/06/16 11:23:43;;;;;;;3.10;3.00;;;22.70;65.10;;;;;;5086545;27;43481;-67
2023/06/16 11:26:20;;;;;;;3.77;3.47;;;22.80;64.60;;;;;;5120329;27;43651;-67
2023/06/16 11:28:51;;;;;;;3.10;3.00;;;22.90;64.30;;;;;;5100498;27;43434;-67
2023/06/16 11:31:20;;;;;;;3.17;2.97;;;22.90;64.30;;;;;;5099522;27;43445;-67
2023/06/16 11:33:49;;;;;;;3.17;3.07;;;22.90;64.50;;;;;;5103025;27;43838;-66
2023/06/16 11:36:17;;;;;;;3.30;3.10;;;22.80;64.70;;;;;;5100673;27;43793;-68
2023/06/16 11:38:45;;;;;;;3.37;3.20;;;22.80;65.30;;;;;;5097684;27;43366;-67
2023/06/16 11:41:17;;;;;;;3.30;3.20;;;22.80;65.20;;;;;;5101244;27;43410;-68
2023/06/16 11:43:47;;;;;;;3.20;3.10;;;22.70;65.20;;;;;;5098562;27;43924;-68
2023/06/16 11:46:16;;;;;;;3.63;3.50;;;22.70;65.30;;;;;;5103541;27;43887;-68
2023/06/16 11:48:44;;;;;;;3.10;3.03;;;22.70;65.70;;;;;;5104210;27;43948;-68
2023/06/16 11:51:12;;;;;;;3.33;3.23;;;22.60;65.70;;;;;;5103369;27;43342;-68
2023/06/16 11:53:42;;;;;;;3.20;3.10;;;22.60;65.50;;;;;;5110748;27;43373;-68
2023/06/16 11:56:12;;;;;;;4.00;3.60;;;22.60;65.50;;;;;;5104080;27;43605;-68
2023/06/16 11:58:42;;;;;;;3.83;3.60;;;22.60;65.60;;;;;;5104030;27;43795;-67
2023/06/16 12:01:13;;;;;;;3.17;2.97;;;22.60;66.10;;;;;;5103809;27;43429;-67
2023/06/16 12:03:42;;;;;;;3.20;3.10;;;22.60;65.80;;;;;;5096609;27;43838;-67
2023/06/16 12:06:30;;;;;;;3.17;3.07;;;22.70;66.00;;;;;;5081721;28;43840;-66
2023/06/16 12:08:58;;;;;;;3.00;2.90;;;22.90;64.80;;;;;;5083471;28;43393;-67
2023/06/16 12:11:28;;;;;;;3.20;3.10;;;22.90;64.50;;;;;;5083478;28;43414;-66
2023/06/16 12:13:56;;;;;;;3.33;3.13;;;22.90;64.50;;;;;;5082032;27;43433;-66
2023/06/16 12:16:26;;;;;;;3.07;2.97;;;22.90;64.70;;;;;;5083087;27;43610;-70
2023/06/16 12:18:55;;;;;;;3.47;3.37;;;22.80;64.80;;;;;;5083347;27;43991;-67
2023/06/16 12:21:23;;;;;;;3.00;2.90;;;22.80;65.40;;;;;;5083399;27;43450;-67
2023/06/16 12:23:52;;;;;;;3.43;3.23;;;22.80;65.40;;;;;;5083415;28;43617;-67
2023/06/16 12:26:31;;;;;;;3.43;3.33;;;22.70;65.30;;;;;;5082966;28;43752;-66
2023/06/16 12:29:01;;;;;;;3.10;3.00;;;22.70;65.30;;;;;;5077505;28;43392;-66
2023/06/16 12:31:31;;;;;;;3.37;3.27;;;22.70;65.40;;;;;;5083021;27;43965;-66
2023/06/16 12:33:59;;;;;;;3.27;3.17;;;22.60;65.70;;;;;;5082073;28;44090;-67
2023/06/16 12:36:27;;;;;;;3.50;3.40;;;22.70;65.60;;;;;;5074571;28;46113;-66
2023/06/16 12:38:56;;;;;;;3.10;3.00;;;22.80;65.20;;;;;;5068937;28;43719;-67
2023/06/16 12:41:24;;;;;;;3.10;3.00;;;22.80;65.10;;;;;;5069578;28;43443;-66
2023/06/16 12:43:52;;;;;;;3.13;3.03;;;22.80;65.10;;;;;;5064924;28;43710;-66
2023/06/16 12:46:20;;;;;;;3.17;3.07;;;22.80;65.40;;;;;;5069156;28;43650;-66
2023/06/16 12:48:50;;;;;;;3.10;3.00;;;22.70;65.40;;;;;;5069603;28;43924;-67
2023/06/16 12:51:18;;;;;;;3.07;3.00;;;22.80;65.60;;;;;;5069014;28;44015;-67
2023/06/16 12:53:46;;;;;;;3.43;3.27;;;22.70;65.40;;;;;;5069742;28;43458;-66
2023/06/16 12:56:15;;;;;;;3.30;3.10;;;22.70;65.30;;;;;;5069189;28;43571;-66
2023/06/16 12:58:44;;;;;;;3.20;3.10;;;22.60;65.80;;;;;;5069218;28;43428;-67
2023/06/16 13:01:12;;;;;;;3.10;3.00;;;22.60;65.90;;;;;;5069281;28;43403;-67
2023/06/16 13:03:46;;;;;;;3.60;3.50;;;22.60;65.80;;;;;;5069114;28;43309;-67